Terminal Aerodrome Forecast
Issued by NWS Jackson, MS

Home | Current Version | Previous Version | Text Only | Print | Product List | Glossary On
Versions: 1 2 3 4 5 6 7 8 9 10 11 12 13 14 15 16 17 18 19 20 21 22 23 24
000
FTUS44 KJAN 011700
TAFHBG
TAF
KHBG 011736Z 0118/0218 16009KT P6SM VCTS SCT035 BKN050CB
     FM020000 16005KT P6SM FEW050 SCT150
     FM021000 VRB03KT 1SM BR BKN009
     FM021400 17006KT P6SM SCT025 BKN040=

USA.gov is the U.S. government's official web portal to all federal, state and local government web resources and services.